createdAt,value
2023-03-21T05:01:01.386Z,99.99
2023-03-21T05:02:01.266Z,99.99
2023-03-21T05:03:01.309Z,99.99
2023-03-21T05:04:01.275Z,99.99
2023-03-21T05:05:01.243Z,99.99
2023-03-21T05:06:01.211Z,99.99
2023-03-21T05:07:01.266Z,99.99
2023-03-21T05:08:01.198Z,99.99
2023-03-21T05:09:01.208Z,99.99
2023-03-21T05:10:02.535Z,99.99
2023-03-21T05:11:01.170Z,99.99
2023-03-21T05:12:01.132Z,99.99
2023-03-21T05:13:01.184Z,99.99
2023-03-21T05:14:01.131Z,99.99
2023-03-21T05:15:55.237Z,99.99
2023-03-21T05:16:55.195Z,99.99
2023-03-21T05:17:56.986Z,99.99
2023-03-21T05:18:56.895Z,99.99
2023-03-21T05:19:55.154Z,99.99
2023-03-21T05:20:55.117Z,99.99
2023-03-21T05:21:55.209Z,99.99
2023-03-21T05:22:55.200Z,99.99
2023-03-21T05:23:55.088Z,99.99
2023-03-21T05:24:55.062Z,99.99
2023-03-21T05:25:55.073Z,99.99
2023-03-21T05:26:55.023Z,99.99
2023-03-21T05:27:55.083Z,99.99
2023-03-21T05:28:54.994Z,99.99
2023-03-21T05:30:02.082Z,99.99
2023-03-21T05:31:02.143Z,99.99
2023-03-21T05:31:54.989Z,99.99
2023-03-21T05:32:54.938Z,99.99
2023-03-21T05:33:54.959Z,99.99
2023-03-21T05:34:54.919Z,99.99
2023-03-21T05:35:54.983Z,99.99
2023-03-21T05:36:55.066Z,99.99
2023-03-21T05:37:54.896Z,99.99
2023-03-21T05:38:54.856Z,99.99
2023-03-21T05:39:54.879Z,99.99
2023-03-21T05:40:54.838Z,99.99
2023-03-21T05:41:54.845Z,99.99
2023-03-21T05:42:54.905Z,99.99
2023-03-21T05:43:54.830Z,99.99
2023-03-21T05:44:54.782Z,99.99
2023-03-21T05:45:54.873Z,99.99
2023-03-21T05:46:54.777Z,99.99
2023-03-21T05:47:54.827Z,99.99
2023-03-21T05:48:54.785Z,99.99
2023-03-21T05:49:54.753Z,99.99
2023-03-21T05:50:54.716Z,99.99
2023-03-21T05:51:54.719Z,99.99
2023-03-21T05:52:54.697Z,99.99
2023-03-21T05:53:54.701Z,99.99
2023-03-21T05:54:54.741Z,99.99
2023-03-21T05:55:54.673Z,99.99
2023-03-21T05:56:54.652Z,99.99
2023-03-21T05:57:54.663Z,99.99
2023-03-21T05:58:54.637Z,99.99
2023-03-21T05:59:54.642Z,99.99
2023-03-21T06:00:54.651Z,99.99
2023-03-21T06:01:54.603Z,99.99
2023-03-21T06:02:54.564Z,99.99
2023-03-21T06:03:54.620Z,99.99
2023-03-21T06:04:54.536Z,99.99
2023-03-21T06:05:54.551Z,99.99
2023-03-21T06:06:54.561Z,99.99
2023-03-21T06:07:54.517Z,99.99
2023-03-21T06:08:54.485Z,99.99
2023-03-21T06:09:54.485Z,99.99
2023-03-21T06:10:54.477Z,99.99
2023-03-21T06:11:54.461Z,99.99
2023-03-21T06:12:54.712Z,99.99
2023-03-21T06:13:54.444Z,99.56
2023-03-21T06:14:54.422Z,98.74
2023-03-21T06:15:54.466Z,98.02
2023-03-21T06:16:54.370Z,97.77
2023-03-21T06:17:54.389Z,97.56
2023-03-21T06:18:54.431Z,97.05
2023-03-21T06:19:54.367Z,96.43
2023-03-21T06:20:54.326Z,96.02
2023-03-21T06:21:54.352Z,95.71
2023-03-21T06:22:54.291Z,95.50
2023-03-21T06:23:54.334Z,95.46
2023-03-21T06:24:54.342Z,95.56
2023-03-21T06:25:54.276Z,94.54
2023-03-21T06:26:54.256Z,94.64
2023-03-21T06:27:54.268Z,94.64
2023-03-21T06:28:54.258Z,94.49
2023-03-21T06:29:54.250Z,94.39
2023-03-21T06:30:54.274Z,93.67
2023-03-21T06:31:54.221Z,92.54
2023-03-21T06:32:54.193Z,92.74
2023-03-21T06:33:54.175Z,93.05
2023-03-21T06:34:54.156Z,92.80
2023-03-21T06:35:54.237Z,92.50
2023-03-21T06:36:54.273Z,91.57
2023-03-21T06:37:54.165Z,90.65
2023-03-21T06:38:54.134Z,90.24
2023-03-21T06:39:55.406Z,89.93
2023-03-21T06:40:54.092Z,90.44
2023-03-21T06:41:54.059Z,90.44
2023-03-21T06:42:54.150Z,90.20
2023-03-21T06:43:54.120Z,90.09
2023-03-21T06:44:54.063Z,89.99
2023-03-21T06:45:54.034Z,89.48
2023-03-21T06:46:54.081Z,89.23
2023-03-21T06:47:54.031Z,88.82
2023-03-21T06:48:54.091Z,88.41
2023-03-21T06:49:53.954Z,88.21
2023-03-21T06:50:54.016Z,88.21
2023-03-21T06:51:53.972Z,88.21
2023-03-21T06:52:53.930Z,88.00
2023-03-21T06:53:53.908Z,87.90
2023-03-21T06:54:53.979Z,87.96
2023-03-21T06:55:53.884Z,87.76
2023-03-21T06:56:53.891Z,87.34
2023-03-21T06:57:53.845Z,87.24
2023-03-21T06:58:53.863Z,88.27
2023-03-21T06:59:53.836Z,88.27
2023-03-21T07:00:53.971Z,87.65
2023-03-21T07:01:53.801Z,87.55
2023-03-21T07:02:53.980Z,87.14
2023-03-21T07:03:53.769Z,86.90
2023-03-21T07:04:53.798Z,86.69
2023-03-21T07:05:53.782Z,86.07
2023-03-21T07:06:53.815Z,85.87
2023-03-21T07:07:53.726Z,85.72
2023-03-21T07:08:53.751Z,85.63
2023-03-21T07:09:53.701Z,85.22
2023-03-21T07:10:53.699Z,85.42
2023-03-21T07:11:53.690Z,85.22
2023-03-21T07:12:53.767Z,84.70
2023-03-21T07:13:53.652Z,84.60
2023-03-21T07:14:53.641Z,84.60
2023-03-21T07:15:53.654Z,84.05
2023-03-21T07:16:53.668Z,83.74
2023-03-21T07:17:53.596Z,83.23
2023-03-21T07:18:53.669Z,82.92
2023-03-21T07:19:53.568Z,82.51
2023-03-21T07:20:53.575Z,82.51
2023-03-21T07:21:53.528Z,83.23
2023-03-21T07:22:53.560Z,83.03
2023-03-21T07:23:53.518Z,82.31
2023-03-21T07:25:04.255Z,82.41
2023-03-21T07:25:54.576Z,82.51
2023-03-21T07:26:53.496Z,82.31
2023-03-21T07:27:53.514Z,82.21
2023-03-21T07:28:53.465Z,82.17
2023-03-21T07:29:53.471Z,81.96
2023-03-21T07:30:53.539Z,82.07
2023-03-21T07:31:53.489Z,81.72
2023-03-21T07:33:00.411Z,81.10
2023-03-21T07:34:01.430Z,80.35
2023-03-21T07:34:53.399Z,80.11
2023-03-21T07:35:53.356Z,78.58
2023-03-21T07:37:00.492Z,78.17
2023-03-21T07:37:53.310Z,78.48
2023-03-21T07:38:53.323Z,78.17
2023-03-21T07:39:53.316Z,78.03
2023-03-21T07:40:53.308Z,77.18
2023-03-21T07:41:53.269Z,75.92
2023-03-21T07:42:53.590Z,76.29
2023-03-21T07:43:53.247Z,75.78
2023-03-21T07:44:53.245Z,75.03
2023-03-21T07:45:53.251Z,74.42
2023-03-21T07:46:53.233Z,74.11
2023-03-21T07:47:53.243Z,73.43
2023-03-21T07:48:53.290Z,72.28
2023-03-21T07:49:53.181Z,71.53
2023-03-21T07:50:53.266Z,70.86
2023-03-21T07:51:53.159Z,70.25
2023-03-21T07:52:53.138Z,69.60
2023-03-21T07:53:53.104Z,68.49
2023-03-21T07:54:53.116Z,68.72
2023-03-21T07:55:53.084Z,69.80
2023-03-21T07:56:53.354Z,71.06
2023-03-21T07:57:53.053Z,72.41
2023-03-21T07:58:53.064Z,72.86
2023-03-21T07:59:53.036Z,73.16
2023-03-21T08:00:53.057Z,73.26
2023-03-21T08:01:53.078Z,73.67
2023-03-21T08:02:53.081Z,73.67
2023-03-21T08:03:53.098Z,73.64
2023-03-21T08:04:53.000Z,73.64
2023-03-21T08:05:52.953Z,73.23
2023-03-21T08:06:52.962Z,73.47
2023-03-21T08:07:52.928Z,73.30
2023-03-21T08:08:53.004Z,71.87
2023-03-21T08:09:52.911Z,69.78
2023-03-21T08:10:52.914Z,67.68
2023-03-21T08:11:52.873Z,66.09
2023-03-21T08:12:52.881Z,65.15
2023-03-21T08:13:52.851Z,64.51
2023-03-21T08:14:53.434Z,62.66
2023-03-21T08:15:52.853Z,62.12
2023-03-21T08:16:52.857Z,63.43
2023-03-21T08:17:52.791Z,65.78
2023-03-21T08:18:52.973Z,67.77
2023-03-21T08:19:52.768Z,68.72
2023-03-21T08:20:52.851Z,69.87
2023-03-21T08:21:52.740Z,70.38
2023-03-21T08:22:52.744Z,70.28
2023-03-21T08:23:52.710Z,70.25
2023-03-21T08:24:52.715Z,70.04
2023-03-21T08:25:52.701Z,69.91
2023-03-21T08:26:53.201Z,69.09
2023-03-21T08:27:52.692Z,68.99
2023-03-21T08:28:52.668Z,69.26
2023-03-21T08:29:52.640Z,68.66
2023-03-21T08:30:52.860Z,68.45
2023-03-21T08:31:52.632Z,68.59
2023-03-21T08:32:52.620Z,68.79
2023-03-21T08:33:52.587Z,69.20
2023-03-21T08:34:52.617Z,69.53
2023-03-21T08:35:52.643Z,70.07
2023-03-21T08:36:52.597Z,70.10
2023-03-21T08:37:52.527Z,71.23
2023-03-21T08:38:52.541Z,71.43
2023-03-21T08:39:52.531Z,71.16
2023-03-21T08:40:52.620Z,71.60
2023-03-21T08:41:52.482Z,72.01
2023-03-21T08:42:52.498Z,72.31
2023-03-21T08:43:52.457Z,73.06
2023-03-21T08:44:52.473Z,73.16
2023-03-21T08:45:52.463Z,72.65
2023-03-21T08:46:52.470Z,72.96
2023-03-21T08:47:52.467Z,73.60
2023-03-21T08:48:52.451Z,73.16
2023-03-21T08:49:52.387Z,73.57
2023-03-21T08:50:52.450Z,73.67
2023-03-21T08:51:52.392Z,73.43
2023-03-21T08:52:52.358Z,73.19
2023-03-21T08:53:52.349Z,72.28
2023-03-21T08:54:52.336Z,72.38
2023-03-21T08:55:52.345Z,71.77
2023-03-21T08:56:52.289Z,71.97
2023-03-21T08:57:52.286Z,72.17
2023-03-21T08:58:52.322Z,71.56
2023-03-21T08:59:52.337Z,71.94
2023-03-21T09:00:52.257Z,71.73
2023-03-21T09:01:52.287Z,71.16
2023-03-21T09:02:52.224Z,71.47
2023-03-21T09:03:52.195Z,71.77
2023-03-21T09:04:52.246Z,72.25
2023-03-21T09:05:52.288Z,71.23
2023-03-21T09:06:52.221Z,71.47
2023-03-21T09:07:52.188Z,70.95
2023-03-21T09:08:52.145Z,71.16
2023-03-21T09:10:08.140Z,70.82
2023-03-21T09:10:53.118Z,70.72
2023-03-21T09:11:52.667Z,70.28
2023-03-21T09:12:52.100Z,70.48
2023-03-21T09:13:52.268Z,69.33
2023-03-21T09:14:52.079Z,68.82
2023-03-21T09:15:52.046Z,68.08
2023-03-21T09:16:52.024Z,68.38
2023-03-21T09:17:51.996Z,67.77
2023-03-21T09:18:52.007Z,67.47
2023-03-21T09:19:52.070Z,67.77
2023-03-21T09:20:51.992Z,67.13
2023-03-21T09:21:51.949Z,66.42
2023-03-21T09:22:51.946Z,65.78
2023-03-21T09:23:51.915Z,65.37
2023-03-21T09:24:51.936Z,64.73
2023-03-21T09:25:51.940Z,63.11
2023-03-21T09:26:51.914Z,63.21
2023-03-21T09:27:51.854Z,63.52
2023-03-21T09:28:51.871Z,63.11
2023-03-21T09:29:51.853Z,63.65
2023-03-21T09:30:51.858Z,64.46
2023-03-21T09:31:52.219Z,63.78
2023-03-21T09:32:51.861Z,64.12
2023-03-21T09:33:51.782Z,65.23
2023-03-21T09:34:51.799Z,64.32
2023-03-21T09:35:58.784Z,64.62
2023-03-21T09:36:58.847Z,65.51
2023-03-21T09:37:58.748Z,65.78
2023-03-21T09:38:58.759Z,64.06
2023-03-21T09:39:58.723Z,62.81
2023-03-21T09:40:58.723Z,62.40
2023-03-21T09:41:58.690Z,62.51
2023-03-21T09:42:51.739Z,62.40
2023-03-21T09:43:51.648Z,62.71
2023-03-21T09:44:51.680Z,63.01
2023-03-21T09:45:51.619Z,62.07
2023-03-21T09:46:51.652Z,61.97
2023-03-21T09:47:51.683Z,61.97
2023-03-21T09:48:57.227Z,62.75
2023-03-21T09:49:54.658Z,62.21
2023-03-21T09:50:51.612Z,61.78
2023-03-21T09:51:51.573Z,59.92
2023-03-21T09:52:51.578Z,60.43
2023-03-21T09:53:51.523Z,60.61
2023-03-21T09:54:51.585Z,60.78
2023-03-21T09:55:51.518Z,59.97
2023-03-21T09:56:51.516Z,58.05
2023-03-21T09:57:51.510Z,58.48
2023-03-21T09:58:51.490Z,59.01
2023-03-21T09:59:51.437Z,59.80
2023-03-21T10:00:51.531Z,58.99
2023-03-21T10:01:51.449Z,57.95
2023-03-21T10:02:51.414Z,58.56
2023-03-21T10:03:51.396Z,58.73
2023-03-21T10:04:51.499Z,57.82
2023-03-21T10:05:51.375Z,58.20
2023-03-21T10:06:51.428Z,57.89
2023-03-21T10:07:51.324Z,57.49
2023-03-21T10:08:51.344Z,56.76
2023-03-21T10:09:51.310Z,55.62
2023-03-21T10:10:51.352Z,53.90
2023-03-21T10:11:51.284Z,54.41
2023-03-21T10:12:51.351Z,54.61
2023-03-21T10:13:51.295Z,55.21
2023-03-21T10:14:55.916Z,56.02
2023-03-21T10:15:51.224Z,54.81
2023-03-21T10:16:51.292Z,54.99
2023-03-21T10:17:51.203Z,54.89
2023-03-21T10:18:51.281Z,53.70
2023-03-21T10:19:51.174Z,54.74
2023-03-21T10:20:51.236Z,54.83
2023-03-21T10:22:00.588Z,54.63
2023-03-21T10:22:52.156Z,55.94
2023-03-21T10:23:51.158Z,55.52
2023-03-21T10:24:51.147Z,53.90
2023-03-21T10:25:51.135Z,53.80
2023-03-21T10:26:51.122Z,53.90
2023-03-21T10:27:51.061Z,54.00
2023-03-21T10:29:52.052Z,54.33
2023-03-21T10:30:51.115Z,55.65
2023-03-21T10:31:51.045Z,54.21
2023-03-21T10:32:51.200Z,54.61
2023-03-21T10:33:50.991Z,53.60
2023-03-21T10:34:50.969Z,53.22
2023-03-21T10:35:51.127Z,53.45
2023-03-21T10:36:50.948Z,54.46
2023-03-21T10:37:50.952Z,54.96
2023-03-21T10:38:50.939Z,54.79
2023-03-21T10:39:50.952Z,55.29
2023-03-21T10:40:50.888Z,55.07
2023-03-21T10:41:50.949Z,54.58
2023-03-21T10:42:50.886Z,55.29
2023-03-21T10:43:50.897Z,54.89
2023-03-21T10:44:50.841Z,54.99
2023-03-21T10:45:51.036Z,55.16
2023-03-21T10:46:51.064Z,54.25
2023-03-21T10:47:51.056Z,54.05
2023-03-21T10:48:50.982Z,54.36
2023-03-21T10:50:06.761Z,54.66
2023-03-21T10:50:51.891Z,53.96
2023-03-21T10:51:50.779Z,53.63
2023-03-21T10:52:50.745Z,52.84
2023-03-21T10:53:50.769Z,53.85
2023-03-21T10:54:50.751Z,54.74
2023-03-21T10:55:50.815Z,54.53
2023-03-21T10:56:50.695Z,53.83
2023-03-21T10:57:50.702Z,53.30
2023-03-21T10:58:50.653Z,52.47
2023-03-21T10:59:50.667Z,52.36
2023-03-21T11:00:50.681Z,52.74
2023-03-21T11:01:50.688Z,52.24
2023-03-21T11:02:50.787Z,53.14
2023-03-21T11:03:50.606Z,52.51
2023-03-21T11:04:50.577Z,51.61
2023-03-21T11:05:50.654Z,51.61
2023-03-21T11:06:50.566Z,51.18
2023-03-21T11:07:50.566Z,51.08
2023-03-21T11:08:50.524Z,50.78
2023-03-21T11:09:53.487Z,50.35
2023-03-21T11:10:50.591Z,50.56
2023-03-21T11:11:50.505Z,49.95
2023-03-21T11:12:50.467Z,49.85
2023-03-21T11:13:50.491Z,49.55
2023-03-21T11:14:50.529Z,49.75
2023-03-21T11:15:59.374Z,49.85
2023-03-21T11:16:52.291Z,50.25
2023-03-21T11:17:50.431Z,50.37
2023-03-21T11:18:50.411Z,50.98
2023-03-21T11:19:50.415Z,50.35
2023-03-21T11:20:50.371Z,50.56
2023-03-21T11:21:51.475Z,50.35
2023-03-21T11:22:50.445Z,50.83
2023-03-21T11:23:50.467Z,50.91
2023-03-21T11:24:50.334Z,49.70
2023-03-21T11:25:50.489Z,50.28
2023-03-21T11:26:50.319Z,48.47
2023-03-21T11:27:50.565Z,49.40
2023-03-21T11:28:50.323Z,49.68
2023-03-21T11:29:50.280Z,48.87
2023-03-21T11:30:50.333Z,48.95
2023-03-21T11:31:50.260Z,48.44
2023-03-21T11:32:50.221Z,47.74
2023-03-21T11:33:50.279Z,47.34
2023-03-21T11:34:50.209Z,47.94
2023-03-21T11:35:50.214Z,47.24
2023-03-21T11:36:50.172Z,46.66
2023-03-21T11:37:50.184Z,47.86
2023-03-21T11:38:50.149Z,47.26
2023-03-21T11:39:50.179Z,47.26
2023-03-21T11:40:57.202Z,47.74
2023-03-21T11:41:57.132Z,47.04
2023-03-21T11:42:57.085Z,45.73
2023-03-21T11:43:57.110Z,45.13
2023-03-21T11:44:58.492Z,46.84
2023-03-21T11:45:50.138Z,46.64
2023-03-21T11:46:50.098Z,46.14
2023-03-21T11:47:50.091Z,46.54
2023-03-21T11:48:50.002Z,46.92
2023-03-21T11:49:55.703Z,46.61
2023-03-21T11:50:50.995Z,47.04
2023-03-21T11:51:49.999Z,45.83
2023-03-21T11:52:50.087Z,46.64
2023-03-21T11:53:49.964Z,46.03
2023-03-21T11:54:49.934Z,45.71
2023-03-21T11:55:49.942Z,45.53
2023-03-21T11:56:49.904Z,46.66
2023-03-21T11:57:49.975Z,46.15
2023-03-21T11:58:49.951Z,46.76
2023-03-21T11:59:49.888Z,46.66
2023-03-21T12:00:49.899Z,46.94
2023-03-21T12:01:49.879Z,47.34
2023-03-21T12:02:49.903Z,47.32
2023-03-21T12:03:49.909Z,47.42
2023-03-21T12:04:50.014Z,46.81
2023-03-21T12:05:49.819Z,46.01
2023-03-21T12:06:49.788Z,45.31
2023-03-21T12:07:49.826Z,46.23
2023-03-21T12:08:49.756Z,45.94
2023-03-21T12:09:49.776Z,46.11
2023-03-21T12:10:49.790Z,46.44
2023-03-21T12:11:49.742Z,47.12
2023-03-21T12:12:49.729Z,46.31
2023-03-21T12:13:49.695Z,45.75
2023-03-21T12:14:49.687Z,46.86
2023-03-21T12:15:49.748Z,47.26
2023-03-21T12:16:49.718Z,47.34
2023-03-21T12:17:49.726Z,47.64
2023-03-21T12:18:49.654Z,46.44
2023-03-21T12:19:49.642Z,45.55
2023-03-21T12:20:49.591Z,46.56
2023-03-21T12:21:49.634Z,46.06
2023-03-21T12:22:49.626Z,46.48
2023-03-21T12:23:49.718Z,46.76
2023-03-21T12:24:49.538Z,45.98
2023-03-21T12:25:49.561Z,46.91
2023-03-21T12:26:49.543Z,46.70
2023-03-21T12:27:49.557Z,47.81
2023-03-21T12:28:49.555Z,48.82
2023-03-21T12:29:49.517Z,48.82
2023-03-21T12:30:49.450Z,47.69
2023-03-21T12:31:49.541Z,47.79
2023-03-21T12:32:49.437Z,48.07
2023-03-21T12:33:49.444Z,47.56
2023-03-21T12:34:49.476Z,46.73
2023-03-21T12:35:49.419Z,46.44
2023-03-21T12:36:49.374Z,46.34
2023-03-21T12:37:51.442Z,45.75
2023-03-21T12:38:49.379Z,46.06
2023-03-21T12:39:49.481Z,46.88
2023-03-21T12:40:49.397Z,47.49
2023-03-21T12:41:49.366Z,46.88
2023-03-21T12:42:49.290Z,46.98
2023-03-21T12:43:49.310Z,46.46
2023-03-21T12:44:49.269Z,46.98
2023-03-21T12:45:49.536Z,46.80
2023-03-21T12:46:49.333Z,48.24
2023-03-21T12:47:49.271Z,48.72
2023-03-21T12:48:49.271Z,48.09
2023-03-21T12:49:49.275Z,47.79
2023-03-21T12:50:49.274Z,47.39
2023-03-21T12:51:49.206Z,47.49
2023-03-21T12:52:49.183Z,48.09
2023-03-21T12:53:49.169Z,46.70
2023-03-21T12:54:49.160Z,48.03
2023-03-21T12:55:49.147Z,48.26
2023-03-21T12:56:49.196Z,48.74
2023-03-21T12:57:57.195Z,48.14
2023-03-21T12:58:50.130Z,48.64
2023-03-21T12:59:49.132Z,48.41
2023-03-21T13:00:49.193Z,49.12
2023-03-21T13:01:49.071Z,49.15
2023-03-21T13:02:49.083Z,49.44
2023-03-21T13:03:49.067Z,49.73
2023-03-21T13:04:49.017Z,48.59
2023-03-21T13:05:49.040Z,48.49
2023-03-21T13:06:49.005Z,48.07
2023-03-21T13:07:49.013Z,47.49
2023-03-21T13:08:49.035Z,48.61
2023-03-21T13:09:48.971Z,48.79
2023-03-21T13:10:48.942Z,48.79
2023-03-21T13:11:48.952Z,48.01
2023-03-21T13:12:48.950Z,49.32
2023-03-21T13:13:48.901Z,49.60
2023-03-21T13:14:48.948Z,50.51
2023-03-21T13:15:48.906Z,50.48
2023-03-21T13:16:48.896Z,50.48
2023-03-21T13:17:48.848Z,50.35
2023-03-21T13:18:48.859Z,50.15
2023-03-21T13:19:48.849Z,49.65
2023-03-21T13:20:48.847Z,50.46
2023-03-21T13:21:48.810Z,50.15
2023-03-21T13:22:48.810Z,49.76
2023-03-21T13:23:48.808Z,50.13
2023-03-21T13:24:48.765Z,49.93
2023-03-21T13:25:48.748Z,48.95
2023-03-21T13:26:48.767Z,49.85
2023-03-21T13:27:48.739Z,50.26
2023-03-21T13:28:48.711Z,49.83
2023-03-21T13:29:48.721Z,49.02
2023-03-21T13:30:48.805Z,48.52
2023-03-21T13:31:52.232Z,48.30
2023-03-21T13:32:48.782Z,48.40
2023-03-21T13:33:48.657Z,48.70
2023-03-21T13:34:48.626Z,48.50
2023-03-21T13:35:48.648Z,49.02
2023-03-21T13:36:48.607Z,49.10
2023-03-21T13:37:48.606Z,49.08
2023-03-21T13:38:48.997Z,48.88
2023-03-21T13:39:48.621Z,48.68
2023-03-21T13:40:48.579Z,47.97
2023-03-21T13:41:48.559Z,48.18
2023-03-21T13:42:48.526Z,49.05
2023-03-21T13:43:48.531Z,48.55
2023-03-21T13:44:50.312Z,48.53
2023-03-21T13:45:55.535Z,47.65
2023-03-21T13:46:55.550Z,48.78
2023-03-21T13:47:55.470Z,48.28
2023-03-21T13:48:59.129Z,48.38
2023-03-21T13:49:55.519Z,48.68
2023-03-21T13:50:55.443Z,49.08
2023-03-21T13:51:55.425Z,48.18
2023-03-21T13:52:48.401Z,48.46
2023-03-21T13:53:48.413Z,48.75
2023-03-21T13:54:48.355Z,48.23
2023-03-21T13:55:48.475Z,46.87
2023-03-21T13:56:48.337Z,47.97
2023-03-21T13:57:48.362Z,48.48
2023-03-21T13:58:48.322Z,48.78
2023-03-21T13:59:48.324Z,48.78
2023-03-21T14:00:48.348Z,48.28
2023-03-21T14:01:48.349Z,49.28
2023-03-21T14:02:48.276Z,48.18
2023-03-21T14:03:48.289Z,48.50
2023-03-21T14:05:04.044Z,48.60
2023-03-21T14:05:49.278Z,48.10
2023-03-21T14:06:48.232Z,48.93
2023-03-21T14:07:48.327Z,50.05
2023-03-21T14:08:48.179Z,50.56
2023-03-21T14:09:48.209Z,50.66
2023-03-21T14:10:48.164Z,50.46
2023-03-21T14:11:48.144Z,50.86
2023-03-21T14:12:48.156Z,50.56
2023-03-21T14:13:51.672Z,50.35
2023-03-21T14:14:48.103Z,50.66
2023-03-21T14:15:55.342Z,51.06
2023-03-21T14:17:48.119Z,50.38
2023-03-21T14:18:53.848Z,51.59
2023-03-21T14:19:49.132Z,51.59
2023-03-21T14:20:48.087Z,51.01
2023-03-21T14:21:48.111Z,51.71
2023-03-21T14:22:48.056Z,51.73
2023-03-21T14:23:48.024Z,52.24
2023-03-21T14:24:47.997Z,52.31
2023-03-21T14:25:48.136Z,52.22
2023-03-21T14:26:48.823Z,52.44
2023-03-21T14:27:47.941Z,52.24
2023-03-21T14:28:47.918Z,51.93
2023-03-21T14:29:47.893Z,51.84
2023-03-21T14:30:48.034Z,51.73
2023-03-21T14:31:47.938Z,52.04
2023-03-21T14:32:47.893Z,52.24
2023-03-21T14:33:47.850Z,52.31
2023-03-21T14:34:47.868Z,52.42
2023-03-21T14:35:47.880Z,52.51
2023-03-21T14:36:56.973Z,52.34
2023-03-21T14:37:48.809Z,52.24
2023-03-21T14:38:47.833Z,52.74
2023-03-21T14:39:47.783Z,52.74
2023-03-21T14:40:47.766Z,52.62
2023-03-21T14:41:47.743Z,52.14
2023-03-21T14:42:47.792Z,52.14
2023-03-21T14:43:47.713Z,52.54
2023-03-21T14:44:54.957Z,53.14
2023-03-21T14:45:48.769Z,53.65
2023-03-21T14:46:47.693Z,52.77
2023-03-21T14:47:47.712Z,52.57
2023-03-21T14:48:47.692Z,52.37
2023-03-21T14:49:47.635Z,52.17
2023-03-21T14:50:47.718Z,52.64
2023-03-21T14:51:47.666Z,53.05
2023-03-21T14:52:47.637Z,53.14
2023-03-21T14:53:47.600Z,51.23
2023-03-21T14:54:47.595Z,51.11
2023-03-21T14:55:47.575Z,51.14
2023-03-21T14:56:47.576Z,51.11
2023-03-21T14:57:47.597Z,51.51
2023-03-21T14:58:47.531Z,51.61
2023-03-21T14:59:47.515Z,51.01
2023-03-21T15:00:47.525Z,50.71
2023-03-21T15:01:47.523Z,50.13
2023-03-21T15:02:47.519Z,50.43
2023-03-21T15:03:47.511Z,50.33
2023-03-21T15:04:47.497Z,51.03
2023-03-21T15:05:47.433Z,50.13
2023-03-21T15:06:47.432Z,49.12
2023-03-21T15:07:47.392Z,49.35
2023-03-21T15:08:47.409Z,49.15
2023-03-21T15:09:47.412Z,49.37
2023-03-21T15:10:50.341Z,49.47
2023-03-21T15:11:48.381Z,49.47
2023-03-21T15:12:47.364Z,49.47
2023-03-21T15:13:47.320Z,49.47
2023-03-21T15:14:47.332Z,49.27
2023-03-21T15:15:47.469Z,49.47
2023-03-21T15:16:47.304Z,49.27
2023-03-21T15:17:47.281Z,49.04
2023-03-21T15:18:47.265Z,49.35
2023-03-21T15:19:47.260Z,48.84
2023-03-21T15:20:47.274Z,49.44
2023-03-21T15:21:47.312Z,49.35
2023-03-21T15:22:47.240Z,49.04
2023-03-21T15:23:47.193Z,49.44
2023-03-21T15:24:47.222Z,48.74
2023-03-21T15:25:47.172Z,48.44
2023-03-21T15:26:47.175Z,48.03
2023-03-21T15:27:47.240Z,47.94
2023-03-21T15:28:47.165Z,47.74
2023-03-21T15:29:47.108Z,47.41
2023-03-21T15:30:47.119Z,47.00
2023-03-21T15:31:47.143Z,47.03
2023-03-21T15:32:48.116Z,47.43
2023-03-21T15:33:47.101Z,47.20
2023-03-21T15:34:47.074Z,47.61
2023-03-21T15:35:47.098Z,47.71
2023-03-21T15:36:47.030Z,47.51
2023-03-21T15:37:47.006Z,47.08
2023-03-21T15:38:47.017Z,46.78
2023-03-21T15:39:47.038Z,46.68
2023-03-21T15:40:46.993Z,46.48
2023-03-21T15:41:46.961Z,46.58
2023-03-21T15:42:46.978Z,46.18
2023-03-21T15:43:46.960Z,46.38
2023-03-21T15:44:46.927Z,46.76
2023-03-21T15:45:46.970Z,46.76
2023-03-21T15:46:46.990Z,46.06
2023-03-21T15:47:46.895Z,46.56
2023-03-21T15:48:46.916Z,46.26
2023-03-21T15:49:46.857Z,45.75
2023-03-21T15:50:46.847Z,45.86
2023-03-21T15:51:53.936Z,45.65
2023-03-21T15:52:53.841Z,45.65
2023-03-21T15:53:54.819Z,44.97
2023-03-21T15:54:53.803Z,44.57
2023-03-21T15:55:46.765Z,44.67
2023-03-21T15:56:53.906Z,44.37
2023-03-21T15:57:46.777Z,44.37
2023-03-21T15:58:46.748Z,44.67
2023-03-21T15:59:46.713Z,44.59
2023-03-21T16:00:46.821Z,45.00
2023-03-21T16:01:46.729Z,45.59
2023-03-21T16:02:46.687Z,44.89
2023-03-21T16:03:46.724Z,45.19
2023-03-21T16:04:46.681Z,46.00
2023-03-21T16:05:46.640Z,46.73
2023-03-21T16:06:46.646Z,46.83
2023-03-21T16:07:46.610Z,46.73
2023-03-21T16:08:46.628Z,47.13
2023-03-21T16:09:46.641Z,47.03
2023-03-21T16:10:46.632Z,47.66
2023-03-21T16:11:46.548Z,47.66
2023-03-21T16:12:46.574Z,47.86
2023-03-21T16:13:46.536Z,47.67
2023-03-21T16:14:46.552Z,47.78
2023-03-21T16:15:46.543Z,48.08
2023-03-21T16:16:46.590Z,48.41
2023-03-21T16:17:46.484Z,48.81
2023-03-21T16:18:46.538Z,48.91
2023-03-21T16:19:46.456Z,49.24
2023-03-21T16:20:46.565Z,50.07
2023-03-21T16:21:46.433Z,51.20
2023-03-21T16:22:46.436Z,52.21
2023-03-21T16:23:46.403Z,53.14
2023-03-21T16:24:46.408Z,53.98
2023-03-21T16:25:46.427Z,54.49
2023-03-21T16:26:46.441Z,55.09
2023-03-21T16:27:46.354Z,55.19
2023-03-21T16:28:46.368Z,55.82
2023-03-21T16:29:46.317Z,56.53
2023-03-21T16:30:46.335Z,56.96
2023-03-21T16:31:46.329Z,56.96
2023-03-21T16:32:46.386Z,57.50
2023-03-21T16:33:46.273Z,57.90
2023-03-21T16:34:46.279Z,58.11
2023-03-21T16:35:46.341Z,58.13
2023-03-21T16:36:46.248Z,58.54
2023-03-21T16:37:46.205Z,58.84
2023-03-21T16:38:46.240Z,58.76
2023-03-21T16:39:46.232Z,58.97
2023-03-21T16:40:46.192Z,59.27
2023-03-21T16:41:46.239Z,59.68
2023-03-21T16:42:46.169Z,59.70
2023-03-21T16:43:46.140Z,59.91
2023-03-21T16:44:46.144Z,59.81
2023-03-21T16:45:46.204Z,59.91
2023-03-21T16:46:46.122Z,59.70
2023-03-21T16:47:46.178Z,59.84
2023-03-21T16:48:46.131Z,59.94
2023-03-21T16:49:46.070Z,59.94
2023-03-21T16:50:46.063Z,60.24
2023-03-21T16:51:46.031Z,60.44
2023-03-21T16:52:46.051Z,60.07
2023-03-21T16:53:46.067Z,60.37
2023-03-21T16:54:46.022Z,60.47
2023-03-21T16:55:46.001Z,60.68
2023-03-21T16:56:45.987Z,60.78
2023-03-21T16:57:45.958Z,61.08
2023-03-21T16:58:45.982Z,61.39
2023-03-21T16:59:46.195Z,61.62
2023-03-21T17:00:45.937Z,61.72
2023-03-21T17:01:46.080Z,61.93
2023-03-21T17:02:45.901Z,62.02
2023-03-21T17:03:45.920Z,62.33
2023-03-21T17:04:45.880Z,62.63
2023-03-21T17:05:45.953Z,62.94
2023-03-21T17:06:45.857Z,63.45
2023-03-21T17:07:45.819Z,63.65
2023-03-21T17:08:45.823Z,63.68
2023-03-21T17:09:45.792Z,63.98
2023-03-21T17:10:45.849Z,64.09
2023-03-21T17:11:45.833Z,64.39
2023-03-21T17:12:45.762Z,64.49
2023-03-21T17:13:45.738Z,64.59
2023-03-21T17:14:45.746Z,64.70
2023-03-21T17:15:45.700Z,64.79
2023-03-21T17:16:45.848Z,65.20
2023-03-21T17:17:45.741Z,65.54
2023-03-21T17:18:45.707Z,65.54
2023-03-21T17:19:45.666Z,65.33
2023-03-21T17:20:45.663Z,65.44
2023-03-21T17:21:45.648Z,65.64
2023-03-21T17:22:45.635Z,65.84
2023-03-21T17:23:45.676Z,65.84
2023-03-21T17:24:45.620Z,66.05
2023-03-21T17:25:45.564Z,66.35
2023-03-21T17:26:45.567Z,66.35
2023-03-21T17:27:45.556Z,66.49
2023-03-21T17:28:45.564Z,66.69
2023-03-21T17:29:45.626Z,66.69
2023-03-21T17:30:45.595Z,66.58
2023-03-21T17:31:45.483Z,66.79
2023-03-21T17:32:45.518Z,66.89
2023-03-21T17:33:45.487Z,66.79
2023-03-21T17:34:45.491Z,66.89
2023-03-21T17:35:45.675Z,66.89
2023-03-21T17:36:45.449Z,66.89
2023-03-21T17:37:52.420Z,66.69
2023-03-21T17:38:52.412Z,66.69
2023-03-21T17:39:53.397Z,66.79
2023-03-21T17:40:52.461Z,66.58
2023-03-21T17:41:52.428Z,66.69
2023-03-21T17:42:52.465Z,66.79
2023-03-21T17:43:45.316Z,66.69
2023-03-21T17:44:45.325Z,66.58
2023-03-21T17:45:45.293Z,66.89
2023-03-21T17:46:45.402Z,66.99
2023-03-21T17:47:45.318Z,66.89
2023-03-21T17:48:45.289Z,66.92
2023-03-21T17:49:45.235Z,66.92
2023-03-21T17:50:45.249Z,67.22
2023-03-21T17:51:45.215Z,67.43
2023-03-21T17:52:45.429Z,67.43
2023-03-21T17:53:45.193Z,67.53
2023-03-21T17:54:45.244Z,67.33
2023-03-21T17:55:45.175Z,67.53